Terminal Aerodrome Forecast
Issued by NWS Charleston, WV

Home | Current Version | Previous Version | Text Only | Print | Product List | Glossary On
Versions: 1 2 3 4 5 6 7 8 9 10 11 12 13 14 15 16 17 18 19 20 21 22
315
FTUS41 KRLX 010539
TAFHTS
TAF
KHTS 010539Z 0106/0206 00000KT P6SM SCT200
     FM011100 00000KT 4SM BR SCT200
     FM011200 16002KT P6SM SCT200
     FM011800 18005KT P6SM SCT050
     FM012300 15002KT P6SM BKN080=

USA.gov is the U.S. government's official web portal to all federal, state and local government web resources and services.